Time;durP1;ratioP1;P1;durP2;ratioP2;P2;SDS_P1;SDS_P2;PMS_P1;PMS_P2;Temp;Humidity;BMP_temperature;BMP_pressure;BME280_temperature;BME280_humidity;BME280_pressure;Samples;Min_cycle;Max_cycle;Signal;HPM_P1;HPM_P2
2022/07/07 00:01:46;;;;;;;0.60;0.20;;;;;;;20.60;66.62;101982.94;7382860;19;20459;-63
2022/07/07 00:04:13;;;;;;;1.60;0.20;;;;;;;20.58;67.26;101983.09;7382217;19;20015;-63
2022/07/07 00:06:41;;;;;;;0.45;0.13;;;;;;;20.58;67.51;101977.75;7382208;19;20021;-63
2022/07/07 00:09:08;;;;;;;0.30;0.10;;;;;;;20.58;67.17;101988.44;7383451;19;20014;-62
2022/07/07 00:11:35;;;;;;;2.38;0.13;;;;;;;20.57;67.05;101980.63;7383190;19;20545;-64
2022/07/07 00:14:02;;;;;;;0.65;0.45;;;;;;;20.55;66.93;101978.16;7388095;19;20010;-64
2022/07/07 00:16:29;;;;;;;1.17;0.30;;;;;;;20.53;67.54;101977.50;7390268;19;20020;-63
2022/07/07 00:18:56;;;;;;;0.50;0.10;;;;;;;20.53;67.42;101974.00;7390088;19;20012;-66
2022/07/07 00:21:23;;;;;;;2.05;0.20;;;;;;;20.53;67.57;101984.69;7388195;19;20024;-65
2022/07/07 00:23:50;;;;;;;0.77;0.20;;;;;;;20.51;67.35;101981.41;7386595;19;20021;-65
2022/07/07 00:26:17;;;;;;;1.45;0.20;;;;;;;20.47;67.51;101978.25;7389902;19;20744;-63
2022/07/07 00:28:43;;;;;;;1.17;0.10;;;;;;;20.47;67.60;101975.56;7389418;19;20014;-63
2022/07/07 00:31:10;;;;;;;0.45;0.20;;;;;;;20.46;68.08;101980.13;7389878;19;20018;-62
2022/07/07 00:33:37;;;;;;;0.60;0.10;;;;;;;20.45;68.09;101988.31;7389458;19;20018;-64
2022/07/07 00:36:07;;;;;;;1.95;0.20;;;;;;;20.46;67.73;101987.31;7386424;19;20017;-62
2022/07/07 00:38:34;;;;;;;0.50;0.10;;;;;;;20.45;67.71;101982.97;7389127;19;20014;-63
2022/07/07 00:41:01;;;;;;;1.38;0.20;;;;;;;20.42;68.41;101980.66;7390157;19;20415;-63
2022/07/07 00:43:35;;;;;;;1.10;0.10;;;;;;;20.43;68.66;101982.31;7389722;19;20018;-62
2022/07/07 00:46:03;;;;;;;0.70;0.20;;;;;;;20.39;68.11;101981.06;7389800;19;20010;-63
2022/07/07 00:48:33;;;;;;;1.17;0.10;;;;;;;20.36;68.19;101981.44;7391200;19;20031;-62
2022/07/07 00:51:00;;;;;;;1.35;0.20;;;;;;;20.33;69.03;101992.50;7389555;19;20487;-63
2022/07/07 00:53:27;;;;;;;0.65;0.20;;;;;;;20.29;68.76;101985.84;7387957;19;20010;-63
2022/07/07 00:55:54;;;;;;;1.60;0.30;;;;;;;20.29;68.78;101977.81;7390517;19;20026;-64
2022/07/07 00:58:21;;;;;;;1.38;0.20;;;;;;;20.29;69.44;101977.81;7390001;19;20015;-62
2022/07/07 01:00:49;;;;;;;1.48;0.20;;;;;;;20.30;69.12;101966.94;7386870;19;20014;-64
2022/07/07 01:03:16;;;;;;;1.95;0.20;;;;;;;20.30;69.07;101966.13;7388276;19;20109;-65
2022/07/07 01:05:47;;;;;;;1.75;0.13;;;;;;;20.31;69.19;101982.00;7386154;19;20014;-64
2022/07/07 01:08:15;;;;;;;0.52;0.20;;;;;;;20.30;69.51;101969.63;7387657;19;20452;-65
2022/07/07 01:10:43;;;;;;;0.77;0.20;;;;;;;20.28;69.58;101973.47;7387715;19;20038;-66
2022/07/07 01:13:09;;;;;;;1.33;0.20;;;;;;;20.28;69.70;101965.47;7388493;19;20021;-65
2022/07/07 01:15:36;;;;;;;1.15;0.20;;;;;;;20.30;69.40;101974.13;7388975;19;20022;-66
2022/07/07 01:18:04;;;;;;;0.70;0.10;;;;;;;20.29;69.52;101969.78;7385194;19;20423;-65
2022/07/07 01:20:32;;;;;;;8.38;0.25;;;;;;;20.26;69.69;101971.03;7388930;19;20101;-65
2022/07/07 01:22:59;;;;;;;2.05;0.20;;;;;;;20.28;69.89;101973.47;7385417;19;20536;-66
2022/07/07 01:25:26;;;;;;;2.17;0.20;;;;;;;20.26;69.92;101980.88;7388394;19;20014;-65
2022/07/07 01:27:52;;;;;;;1.60;0.20;;;;;;;20.25;69.68;101965.84;7388439;19;20015;-64
2022/07/07 01:30:19;;;;;;;1.42;0.30;;;;;;;20.27;70.12;101955.78;7388578;19;20033;-63
2022/07/07 01:32:46;;;;;;;1.05;0.22;;;;;;;20.27;69.88;101963.78;7388296;19;20017;-64
2022/07/07 01:35:13;;;;;;;0.73;0.20;;;;;;;20.25;70.33;101979.22;7383355;19;20021;-63
2022/07/07 01:37:40;;;;;;;1.08;0.20;;;;;;;20.21;70.26;101978.78;7388496;19;20073;-64
2022/07/07 01:40:07;;;;;;;4.40;0.57;;;;;;;20.20;70.20;101981.63;7388368;19;20031;-67
2022/07/07 01:42:34;;;;;;;1.02;0.25;;;;;;;20.20;70.55;101968.25;7388279;19;20018;-63
2022/07/07 01:45:01;;;;;;;0.77;0.20;;;;;;;20.18;70.89;101981.81;7382630;19;20015;-63
2022/07/07 01:47:28;;;;;;;0.77;0.20;;;;;;;20.18;70.85;101980.97;7387674;19;20518;-63
2022/07/07 01:49:54;;;;;;;2.78;0.20;;;;;;;20.15;70.61;101981.34;7385511;19;20554;-63
2022/07/07 01:52:21;;;;;;;1.52;0.40;;;;;;;20.14;70.99;101979.69;7386138;19;20036;-63
2022/07/07 01:54:48;;;;;;;1.90;0.30;;;;;;;20.12;71.04;101979.88;7386840;19;20014;-63
2022/07/07 01:57:15;;;;;;;3.15;0.32;;;;;;;20.12;71.26;101989.72;7387312;19;20443;-63
2022/07/07 01:59:42;;;;;;;2.35;0.30;;;;;;;20.10;71.41;101989.94;7387017;19;20017;-64
2022/07/07 02:02:09;;;;;;;2.58;0.32;;;;;;;20.08;72.04;101992.78;7384193;19;20368;-64
2022/07/07 02:04:36;;;;;;;0.65;0.30;;;;;;;20.06;72.06;101975.31;7384667;19;20021;-63
2022/07/07 02:07:05;;;;;;;1.15;0.30;;;;;;;20.10;72.01;101986.44;7388212;19;20028;-63
2022/07/07 02:09:32;;;;;;;1.20;0.20;;;;;;;20.06;71.76;101989.47;7387243;19;20033;-63
2022/07/07 02:11:59;;;;;;;2.08;0.35;;;;;;;20.03;72.42;102000.53;7388438;19;20022;-64
2022/07/07 02:14:26;;;;;;;1.98;0.63;;;;;;;19.99;72.57;101985.06;7388546;19;20018;-63
2022/07/07 02:16:54;;;;;;;0.50;0.20;;;;;;;19.96;72.88;101980.09;7388073;19;20025;-63
2022/07/07 02:19:25;;;;;;;1.08;0.30;;;;;;;19.95;72.78;101994.47;7387440;19;20018;-63
2022/07/07 02:21:52;;;;;;;1.48;0.30;;;;;;;19.94;73.26;102006.16;7386670;19;20010;-63
2022/07/07 02:24:19;;;;;;;1.30;0.40;;;;;;;19.94;73.11;101998.16;7385135;19;20233;-63
2022/07/07 02:26:55;;;;;;;1.38;0.30;;;;;;;19.92;73.26;101987.63;7388523;19;20011;-64
2022/07/07 02:29:21;;;;;;;1.52;0.20;;;;;;;19.94;73.41;101995.47;7387231;19;20026;-64
2022/07/07 02:31:48;;;;;;;2.60;0.20;;;;;;;20.00;73.03;102008.09;7386335;19;20685;-64
2022/07/07 02:34:15;;;;;;;1.77;0.30;;;;;;;19.97;72.91;101995.94;7385524;19;20035;-63
2022/07/07 02:36:51;;;;;;;1.40;0.20;;;;;;;19.97;73.19;101995.94;7382082;19;20019;-64
2022/07/07 02:39:17;;;;;;;1.73;0.52;;;;;;;19.97;73.34;101987.91;7385229;19;20021;-64
2022/07/07 02:41:44;;;;;;;1.38;0.30;;;;;;;19.96;73.30;101994.25;7385473;19;20025;-63
2022/07/07 02:44:11;;;;;;;1.80;0.38;;;;;;;19.98;73.27;101997.59;7384125;19;20018;-64
2022/07/07 02:46:38;;;;;;;0.47;0.20;;;;;;;19.96;73.64;101999.59;7385657;19;20025;-65
2022/07/07 02:49:05;;;;;;;1.15;0.30;;;;;;;19.96;73.55;102004.16;7387113;19;20014;-63
2022/07/07 02:51:32;;;;;;;0.60;0.30;;;;;;;19.95;73.86;102002.50;7385454;19;20028;-63
2022/07/07 02:53:59;;;;;;;0.93;0.30;;;;;;;19.98;73.63;102002.09;7385622;19;20019;-65
2022/07/07 02:56:26;;;;;;;2.00;0.30;;;;;;;19.97;73.73;102003.94;7386287;19;20011;-66
2022/07/07 02:58:53;;;;;;;0.80;0.30;;;;;;;19.95;73.77;101999.81;7387979;19;20482;-66
2022/07/07 03:01:20;;;;;;;0.52;0.20;;;;;;;19.94;73.77;102004.31;7383377;19;20025;-66
2022/07/07 03:03:47;;;;;;;1.45;0.30;;;;;;;19.94;73.97;102006.16;7385901;19;20031;-64
2022/07/07 03:06:14;;;;;;;0.65;0.22;;;;;;;19.99;73.82;102001.09;7383057;19;20697;-65
2022/07/07 03:08:41;;;;;;;0.93;0.25;;;;;;;19.94;73.94;102003.50;7386390;19;20078;-64
2022/07/07 03:11:08;;;;;;;1.15;0.30;;;;;;;19.91;74.21;102006.56;7386658;19;20018;-66
2022/07/07 03:13:35;;;;;;;0.52;0.30;;;;;;;19.91;73.82;102009.22;7385904;19;20050;-65
2022/07/07 03:16:02;;;;;;;0.93;0.30;;;;;;;19.96;73.96;102012.16;7380305;19;20045;-65
2022/07/07 03:18:29;;;;;;;1.13;0.30;;;;;;;19.93;73.96;102008.00;7385567;19;20017;-65
2022/07/07 03:20:56;;;;;;;1.02;0.20;;;;;;;19.96;73.58;102007.63;7385701;19;20130;-65
2022/07/07 03:23:23;;;;;;;0.93;0.30;;;;;;;19.93;74.08;102018.69;7383895;19;20022;-65
2022/07/07 03:25:50;;;;;;;1.95;0.40;;;;;;;19.95;73.74;102018.53;7385360;19;20367;-65
2022/07/07 03:28:17;;;;;;;2.40;0.30;;;;;;;19.93;73.81;102021.38;7386159;19;20010;-65
2022/07/07 03:30:44;;;;;;;0.90;0.22;;;;;;;19.92;73.69;102029.56;7384128;19;20043;-66
2022/07/07 03:33:11;;;;;;;0.40;0.20;;;;;;;19.90;73.32;102032.44;7386273;19;20034;-66
2022/07/07 03:35:39;;;;;;;1.75;0.20;;;;;;;19.92;73.39;102030.38;7383202;19;20018;-66
2022/07/07 03:38:06;;;;;;;1.85;0.20;;;;;;;19.91;73.16;102030.59;7383987;19;20070;-64
2022/07/07 03:40:34;;;;;;;1.83;0.30;;;;;;;19.92;73.26;102037.56;7387488;19;20014;-66
2022/07/07 03:43:01;;;;;;;1.42;0.30;;;;;;;19.93;73.15;102031.22;7384302;19;20037;-64
2022/07/07 03:45:28;;;;;;;2.67;0.30;;;;;;;19.91;72.91;102046.63;7384071;19;20085;-63
2022/07/07 03:47:55;;;;;;;2.65;0.30;;;;;;;19.89;72.60;102036.13;7384403;19;20034;-64
2022/07/07 03:50:22;;;;;;;1.08;0.30;;;;;;;19.89;72.75;102043.31;7383832;19;20010;-64
2022/07/07 03:52:49;;;;;;;0.75;0.30;;;;;;;19.82;72.96;102048.53;7384974;19;20093;-63
2022/07/07 03:55:15;;;;;;;0.70;0.30;;;;;;;19.80;72.85;102037.22;7385133;19;20022;-67
2022/07/07 03:57:42;;;;;;;1.20;0.30;;;;;;;19.76;73.33;102053.81;7385917;19;20390;-63
2022/07/07 04:00:10;;;;;;;0.82;0.25;;;;;;;19.73;73.37;102046.97;7384301;19;20014;-63
2022/07/07 04:02:37;;;;;;;1.75;0.20;;;;;;;19.71;74.04;102054.31;7383593;19;20078;-63
2022/07/07 04:05:04;;;;;;;1.02;0.30;;;;;;;19.70;73.67;102044.69;7379621;19;20015;-65
2022/07/07 04:07:33;;;;;;;1.95;0.30;;;;;;;19.68;73.69;102048.53;7378737;19;20007;-65
2022/07/07 04:10:01;;;;;;;0.60;0.28;;;;;;;19.69;73.41;102050.19;7381857;19;20017;-65
2022/07/07 04:12:28;;;;;;;2.38;0.30;;;;;;;19.70;73.41;102057.19;7384655;19;20014;-64
2022/07/07 04:14:56;;;;;;;2.10;0.25;;;;;;;19.68;73.70;102065.38;7383095;19;20089;-64
2022/07/07 04:17:23;;;;;;;1.10;0.20;;;;;;;19.66;73.82;102056.72;7380536;19;20014;-64
2022/07/07 04:19:50;;;;;;;1.63;0.30;;;;;;;19.67;73.28;102053.03;7380975;19;20052;-64
2022/07/07 04:22:17;;;;;;;2.28;0.40;;;;;;;19.65;73.58;102057.75;7383637;19;20006;-64
2022/07/07 04:24:43;;;;;;;0.60;0.30;;;;;;;19.64;73.66;102056.91;7381428;19;20015;-65
2022/07/07 04:27:10;;;;;;;1.67;0.30;;;;;;;19.65;73.71;102065.75;7383906;19;20023;-64
2022/07/07 04:29:37;;;;;;;1.45;0.30;;;;;;;19.66;73.57;102064.72;7383973;19;20033;-64
2022/07/07 04:32:05;;;;;;;1.60;0.22;;;;;;;19.68;73.58;102075.25;7383496;19;20026;-65
2022/07/07 04:34:32;;;;;;;0.68;0.20;;;;;;;19.66;73.19;102067.41;7382213;19;20413;-66
2022/07/07 04:36:58;;;;;;;1.55;0.40;;;;;;;19.67;72.77;102069.06;7378972;19;20027;-65
2022/07/07 04:39:25;;;;;;;2.03;0.30;;;;;;;19.68;72.84;102075.25;7382411;19;20027;-63
2022/07/07 04:41:53;;;;;;;0.38;0.20;;;;;;;19.62;73.12;102080.28;7382074;19;20042;-65
2022/07/07 04:44:20;;;;;;;2.75;0.30;;;;;;;19.57;73.47;102085.34;7381817;19;20118;-63
2022/07/07 04:46:47;;;;;;;4.45;0.38;;;;;;;19.56;73.10;102088.19;7383067;19;20010;-63
2022/07/07 04:49:14;;;;;;;0.43;0.22;;;;;;;19.55;73.83;102087.38;7382694;19;20010;-63
2022/07/07 04:51:46;;;;;;;2.70;0.30;;;;;;;19.59;73.66;102088.69;7379317;19;20010;-62
2022/07/07 04:54:13;;;;;;;0.40;0.30;;;;;;;19.62;73.50;102084.81;7381354;19;20518;-63
2022/07/07 04:56:40;;;;;;;1.20;0.30;;;;;;;19.59;73.11;102091.34;7381788;19;20019;-63
2022/07/07 04:59:07;;;;;;;2.40;0.20;;;;;;;19.54;72.54;102099.06;7384649;19;20011;-66
2022/07/07 05:01:33;;;;;;;3.03;0.30;;;;;;;19.48;72.32;102089.09;7387482;19;20025;-64
2022/07/07 05:04:00;;;;;;;0.82;0.20;;;;;;;19.43;72.38;102098.63;7388395;19;20022;-63
2022/07/07 05:06:27;;;;;;;3.50;0.40;;;;;;;19.45;73.00;102096.66;7386979;19;20027;-62
2022/07/07 05:08:54;;;;;;;0.98;0.28;;;;;;;19.45;72.48;102094.81;7388575;19;20018;-64
2022/07/07 05:11:21;;;;;;;1.38;0.30;;;;;;;19.44;72.39;102094.94;7388727;19;20078;-62
2022/07/07 05:13:48;;;;;;;0.98;0.30;;;;;;;19.46;72.37;102103.63;7389632;19;20011;-62
2022/07/07 05:16:14;;;;;;;2.47;0.30;;;;;;;19.45;71.88;102104.66;7390237;19;20361;-64
2022/07/07 05:18:41;;;;;;;0.95;0.40;;;;;;;19.41;71.91;102106.81;7388811;19;20010;-64
2022/07/07 05:21:08;;;;;;;1.73;0.40;;;;;;;19.37;72.09;102112.69;7388306;19;20010;-62
2022/07/07 05:23:35;;;;;;;2.95;0.38;;;;;;;19.35;71.40;102120.06;7387862;19;20022;-62
2022/07/07 05:26:02;;;;;;;1.25;0.22;;;;;;;19.27;71.04;102128.09;7385490;19;20053;-63
2022/07/07 05:28:33;;;;;;;1.20;0.30;;;;;;;19.25;70.68;102128.28;7386745;19;20015;-63
2022/07/07 05:31:00;;;;;;;1.73;0.40;;;;;;;19.20;70.14;102131.47;7388244;19;20014;-63
2022/07/07 05:33:27;;;;;;;2.22;0.30;;;;;;;19.18;70.55;102136.19;7390117;19;20042;-62
2022/07/07 05:35:55;;;;;;;1.55;0.32;;;;;;;19.19;70.37;102139.69;7385126;19;20015;-62
2022/07/07 05:38:27;;;;;;;0.70;0.20;;;;;;;19.17;70.40;102152.38;7386466;19;20048;-62
2022/07/07 05:40:54;;;;;;;2.00;0.28;;;;;;;19.14;70.94;102156.22;7387493;19;20155;-63
2022/07/07 05:43:21;;;;;;;0.70;0.25;;;;;;;19.14;70.64;102163.41;7388818;19;20033;-62
2022/07/07 05:45:48;;;;;;;1.20;0.30;;;;;;;19.11;71.31;102169.06;7385522;19;20473;-63
2022/07/07 05:48:15;;;;;;;1.73;0.30;;;;;;;19.07;71.25;102170.44;7387499;19;20014;-63
2022/07/07 05:50:42;;;;;;;1.48;0.30;;;;;;;19.03;71.28;102175.31;7385796;19;20121;-63
2022/07/07 05:53:09;;;;;;;1.85;0.43;;;;;;;18.97;71.95;102175.16;7386416;19;20341;-63
2022/07/07 05:55:36;;;;;;;1.92;0.40;;;;;;;18.98;72.00;102177.66;7386792;19;20014;-63
2022/07/07 05:58:04;;;;;;;1.52;0.20;;;;;;;19.00;71.89;102182.81;7387506;19;20053;-63
2022/07/07 06:00:31;;;;;;;3.28;0.40;;;;;;;19.02;71.64;102183.47;7385616;19;20103;-64
2022/07/07 06:02:58;;;;;;;2.50;0.40;;;;;;;19.03;71.92;102190.47;7386683;19;20078;-62
2022/07/07 06:05:25;;;;;;;2.55;0.80;;;;;;;19.05;71.44;102185.78;7383268;19;20384;-66
2022/07/07 06:07:52;;;;;;;2.78;0.40;;;;;;;19.06;71.27;102192.78;7386806;19;20025;-64
2022/07/07 06:10:19;;;;;;;2.97;0.45;;;;;;;19.02;71.32;102194.97;7385004;19;20860;-65
2022/07/07 06:12:46;;;;;;;1.27;0.30;;;;;;;19.04;71.09;102197.50;7386581;19;20501;-66
2022/07/07 06:15:13;;;;;;;2.15;0.30;;;;;;;18.99;71.13;102199.84;7385917;19;20013;-63
2022/07/07 06:17:40;;;;;;;2.33;0.40;;;;;;;18.97;71.21;102217.84;7386969;19;20010;-65
2022/07/07 06:20:27;;;;;;;1.60;0.25;;;;;;;18.98;70.87;102227.53;7385434;19;20427;-65
2022/07/07 06:22:54;;;;;;;2.10;0.40;;;;;;;18.96;70.95;102224.19;7385508;19;20451;-65
2022/07/07 06:25:21;;;;;;;1.65;0.30;;;;;;;19.01;70.53;102232.50;7385492;19;20397;-66
2022/07/07 06:27:48;;;;;;;1.63;0.35;;;;;;;18.93;70.37;102232.56;7385816;19;20367;-65
2022/07/07 06:30:15;;;;;;;2.38;0.70;;;;;;;18.92;70.84;102229.03;7384645;19;20028;-65
2022/07/07 06:32:42;;;;;;;2.00;0.20;;;;;;;18.92;70.70;102230.88;7386399;19;20526;-66
2022/07/07 06:35:09;;;;;;;1.80;0.52;;;;;;;18.93;70.49;102236.06;7383591;19;20579;-66
2022/07/07 06:37:36;;;;;;;2.00;0.30;;;;;;;18.92;70.51;102242.38;7386264;19;20109;-66
2022/07/07 06:40:04;;;;;;;3.25;0.28;;;;;;;18.91;70.45;102239.88;7382996;19;20007;-65
2022/07/07 06:42:30;;;;;;;1.77;0.50;;;;;;;18.95;71.05;102242.03;7385166;19;20029;-67
2022/07/07 06:44:57;;;;;;;2.30;0.38;;;;;;;19.01;70.31;102243.19;7385536;19;20010;-65
2022/07/07 06:47:24;;;;;;;1.73;0.30;;;;;;;18.98;70.95;102244.38;7386144;19;20014;-65
2022/07/07 06:49:51;;;;;;;1.38;0.30;;;;;;;19.02;70.77;102250.19;7382094;19;20033;-67
2022/07/07 06:52:18;;;;;;;2.22;0.40;;;;;;;19.02;70.04;102248.34;7384252;19;20014;-65
2022/07/07 06:54:45;;;;;;;0.60;0.28;;;;;;;19.05;69.90;102252.50;7384722;19;20010;-66
2022/07/07 06:57:11;;;;;;;2.05;0.30;;;;;;;19.02;70.11;102260.84;7383661;19;20344;-66
2022/07/07 06:59:38;;;;;;;4.75;0.50;;;;;;;18.99;70.21;102259.38;7384208;19;20713;-67
2022/07/07 07:02:05;;;;;;;1.92;0.35;;;;;;;18.98;70.21;102262.22;7383892;19;20025;-66
2022/07/07 07:04:38;;;;;;;1.58;0.50;;;;;;;19.00;69.99;102261.00;7385597;19;20019;-65
2022/07/07 07:07:10;;;;;;;3.63;0.40;;;;;;;18.95;69.96;102263.38;7385043;19;20011;-66
2022/07/07 07:09:37;;;;;;;3.55;0.40;;;;;;;18.96;70.09;102267.72;7384609;19;20010;-66
2022/07/07 07:12:05;;;;;;;3.03;0.30;;;;;;;18.97;70.16;102271.22;7384095;19;20019;-66
2022/07/07 07:14:32;;;;;;;8.18;0.50;;;;;;;18.98;69.65;102270.22;7384968;19;20017;-66
2022/07/07 07:16:58;;;;;;;2.22;0.40;;;;;;;19.01;69.89;102277.88;7381754;19;20013;-66
2022/07/07 07:19:25;;;;;;;1.63;0.30;;;;;;;18.97;70.32;102279.22;7385615;19;20019;-66
2022/07/07 07:21:52;;;;;;;2.63;0.30;;;;;;;18.98;70.00;102281.72;7383107;19;20014;-66
2022/07/07 07:24:19;;;;;;;2.08;0.30;;;;;;;19.00;70.04;102279.69;7383585;19;20434;-65
2022/07/07 07:26:46;;;;;;;1.38;0.32;;;;;;;19.00;69.36;102293.03;7381327;19;20029;-64
2022/07/07 07:29:13;;;;;;;2.03;0.52;;;;;;;18.99;69.61;102287.91;7384500;19;20018;-64
2022/07/07 07:31:40;;;;;;;1.50;0.28;;;;;;;18.99;69.72;102298.56;7383734;19;20027;-66
2022/07/07 07:34:08;;;;;;;3.83;0.50;;;;;;;18.97;70.09;102301.41;7382989;19;20025;-65
2022/07/07 07:36:35;;;;;;;2.72;0.30;;;;;;;18.96;70.14;102304.22;7379286;19;20341;-65
2022/07/07 07:39:02;;;;;;;4.55;0.68;;;;;;;19.02;69.17;102311.56;7383023;19;20029;-65
2022/07/07 07:41:29;;;;;;;1.17;0.30;;;;;;;18.98;69.67;102311.06;7383953;19;20086;-66
2022/07/07 07:43:56;;;;;;;2.63;0.30;;;;;;;19.00;69.30;102310.88;7383877;19;20075;-65
2022/07/07 07:46:23;;;;;;;3.00;0.60;;;;;;;18.96;69.49;102313.06;7382919;19;20677;-66
2022/07/07 07:48:50;;;;;;;1.70;0.30;;;;;;;18.97;68.89;102311.22;7383942;19;20013;-65
2022/07/07 07:51:16;;;;;;;3.28;0.30;;;;;;;18.92;69.17;102316.25;7382255;19;20022;-65
2022/07/07 07:53:43;;;;;;;3.40;0.20;;;;;;;18.93;69.29;102315.25;7382811;19;20018;-65
2022/07/07 07:56:11;;;;;;;2.22;0.22;;;;;;;18.94;69.37;102317.75;7384570;19;20007;-65
2022/07/07 07:58:38;;;;;;;1.58;0.30;;;;;;;18.97;69.49;102317.41;7383755;19;20025;-65
2022/07/07 08:01:05;;;;;;;0.80;0.20;;;;;;;19.04;69.56;102317.56;7384077;19;20041;-64
2022/07/07 08:03:32;;;;;;;2.70;0.70;;;;;;;19.07;69.03;102318.03;7380712;19;20019;-66
2022/07/07 08:06:00;;;;;;;2.00;0.20;;;;;;;19.08;69.26;102324.22;7381616;19;20017;-66
2022/07/07 08:08:27;;;;;;;1.60;0.20;;;;;;;19.10;70.87;102323.03;7381827;19;20025;-66
2022/07/07 08:10:54;;;;;;;2.45;0.20;;;;;;;19.13;70.05;102333.38;7383082;19;20010;-65
2022/07/07 08:13:21;;;;;;;2.40;0.82;;;;;;;19.16;69.02;102333.00;7382781;19;20021;-65
2022/07/07 08:15:48;;;;;;;2.65;0.40;;;;;;;19.22;68.34;102340.34;7382317;19;20013;-66
2022/07/07 08:18:14;;;;;;;1.73;0.20;;;;;;;19.24;68.53;102340.19;7381610;19;20262;-66
2022/07/07 08:20:41;;;;;;;1.13;0.20;;;;;;;19.22;68.38;102342.19;7381377;19;20018;-65
2022/07/07 08:23:08;;;;;;;3.80;0.30;;;;;;;19.19;68.71;102339.88;7381089;19;20007;-65
2022/07/07 08:25:35;;;;;;;2.40;0.20;;;;;;;19.22;68.09;102351.03;7380634;19;20018;-64
2022/07/07 08:28:02;;;;;;;2.55;0.30;;;;;;;19.19;67.71;102354.03;7383335;19;20013;-66
2022/07/07 08:30:29;;;;;;;0.82;0.20;;;;;;;19.19;67.93;102354.03;7383856;19;20014;-66
2022/07/07 08:32:56;;;;;;;3.03;0.30;;;;;;;19.22;68.71;102350.19;7382318;19;20095;-65
2022/07/07 08:35:23;;;;;;;4.22;0.22;;;;;;;19.25;68.16;102352.50;7381104;19;20018;-65
2022/07/07 08:37:50;;;;;;;2.13;0.20;;;;;;;19.30;68.11;102357.34;7389202;19;20029;-67
2022/07/07 08:40:17;;;;;;;1.13;0.30;;;;;;;19.32;68.15;102350.81;7388229;19;20014;-67
2022/07/07 08:42:43;;;;;;;1.33;0.30;;;;;;;19.40;67.82;102363.31;7389475;19;20021;-65
2022/07/07 08:45:11;;;;;;;1.73;0.40;;;;;;;19.40;66.70;102364.13;7387885;19;20040;-64
2022/07/07 08:47:38;;;;;;;1.65;0.30;;;;;;;19.40;67.58;102368.66;7390040;19;20010;-65
2022/07/07 08:50:13;;;;;;;2.35;0.28;;;;;;;19.40;67.45;102379.34;7387421;19;20014;-66
2022/07/07 08:52:40;;;;;;;1.75;0.43;;;;;;;19.42;67.65;102369.31;7388522;19;20098;-65
2022/07/07 08:55:11;;;;;;;0.57;0.13;;;;;;;19.44;67.40;102367.31;7384575;19;20165;-64
2022/07/07 08:57:38;;;;;;;1.40;0.20;;;;;;;19.46;67.04;102375.97;7388450;19;20005;-65
2022/07/07 09:00:06;;;;;;;2.38;0.32;;;;;;;19.47;66.96;102388.34;7385199;19;20022;-65
2022/07/07 09:02:33;;;;;;;4.60;0.40;;;;;;;19.50;67.03;102382.66;7386640;19;20010;-65
2022/07/07 09:05:02;;;;;;;4.30;0.35;;;;;;;19.53;66.93;102385.81;7372529;19;20021;-65
2022/07/07 09:07:51;;;;;;;1.98;0.30;;;;;;;19.56;66.20;102389.97;7386799;19;20014;-65
2022/07/07 09:10:31;;;;;;;1.77;0.20;;;;;;;19.50;66.21;102391.53;7385317;19;20027;-65
2022/07/07 09:12:59;;;;;;;1.35;0.20;;;;;;;19.45;66.77;102390.38;7383838;19;20122;-66
2022/07/07 09:15:26;;;;;;;1.67;0.30;;;;;;;19.45;66.84;102398.38;7379687;19;20014;-65
2022/07/07 09:17:54;;;;;;;2.38;0.30;;;;;;;19.46;66.94;102403.53;7385884;19;20038;-65
2022/07/07 09:20:21;;;;;;;2.58;0.28;;;;;;;19.54;66.73;102411.53;7384610;19;20022;-66
2022/07/07 09:22:54;;;;;;;0.98;0.30;;;;;;;19.57;66.38;102410.34;7385268;19;20024;-66
2022/07/07 09:25:30;;;;;;;2.03;0.28;;;;;;;19.56;66.35;102406.81;7384772;19;20239;-66
2022/07/07 09:28:05;;;;;;;0.88;0.20;;;;;;;19.59;66.70;102405.66;7385443;19;20018;-67
2022/07/07 09:30:44;;;;;;;2.47;0.20;;;;;;;19.67;65.53;102412.78;7384932;19;20017;-65
2022/07/07 09:33:18;;;;;;;4.32;0.20;;;;;;;19.65;65.69;102413.00;7386132;19;20030;-65
2022/07/07 09:38:33;;;;;;;1.67;0.30;;;;;;;19.61;66.38;102419.66;7384129;19;20363;-66
2022/07/07 09:41:08;;;;;;;2.30;0.20;;;;;;;19.64;65.77;102430.00;7383368;19;20419;-66
2022/07/07 09:43:45;;;;;;;2.95;0.30;;;;;;;19.69;65.92;102425.00;7387424;19;20443;-66
2022/07/07 09:46:17;;;;;;;1.55;0.20;;;;;;;19.60;65.75;102426.88;7382608;19;20021;-66
2022/07/07 09:49:09;;;;;;;3.97;0.30;;;;;;;19.59;65.63;102435.03;7385256;19;20025;-66
2022/07/07 09:51:36;;;;;;;2.33;0.35;;;;;;;19.57;66.23;102434.38;7382283;19;20015;-67
2022/07/07 09:54:07;;;;;;;2.97;0.30;;;;;;;19.57;66.73;102439.72;7384619;19;20772;-66
2022/07/07 09:56:42;;;;;;;3.20;0.40;;;;;;;19.63;65.99;102436.34;7384559;19;20095;-68
2022/07/07 09:59:14;;;;;;;1.83;0.20;;;;;;;19.66;65.95;102441.34;7373686;19;20110;-67
2022/07/07 10:01:46;;;;;;;2.47;0.20;;;;;;;19.69;65.64;102446.34;7384663;19;20055;-65
2022/07/07 10:04:17;;;;;;;1.17;0.20;;;;;;;19.70;65.32;102441.84;7385429;19;20078;-64
2022/07/07 10:06:44;;;;;;;0.85;0.10;;;;;;;19.74;65.44;102444.00;7382251;19;20014;-66
2022/07/07 10:09:16;;;;;;;1.70;0.20;;;;;;;19.75;65.85;102445.66;7384731;19;20066;-67
2022/07/07 10:11:46;;;;;;;1.65;0.20;;;;;;;19.81;64.98;102444.16;7385391;19;20334;-66
2022/07/07 10:14:20;;;;;;;0.95;0.22;;;;;;;19.85;65.47;102442.78;7383915;19;20271;-66
2022/07/07 10:16:50;;;;;;;2.92;0.28;;;;;;;19.90;65.08;102443.94;7380994;19;20634;-65
2022/07/07 10:19:22;;;;;;;1.33;0.20;;;;;;;19.96;64.42;102447.75;7383252;19;20023;-63
2022/07/07 10:21:51;;;;;;;2.13;0.30;;;;;;;20.02;63.84;102455.06;7383344;19;20021;-63
2022/07/07 10:24:23;;;;;;;1.25;0.20;;;;;;;20.08;63.00;102454.34;7381568;19;20045;-64
2022/07/07 10:26:58;;;;;;;1.07;0.20;;;;;;;20.07;62.20;102461.53;7381128;19;20018;-63
2022/07/07 10:29:39;;;;;;;3.03;0.20;;;;;;;20.08;62.63;102470.41;7386109;19;20014;-64
2022/07/07 10:32:09;;;;;;;1.02;0.20;;;;;;;20.10;62.98;102472.91;7382788;19;20070;-64
2022/07/07 10:34:51;;;;;;;1.17;0.13;;;;;;;20.14;62.58;102480.41;7381604;19;20078;-64
2022/07/07 10:37:19;;;;;;;2.25;0.13;;;;;;;20.18;61.15;102471.00;7381718;19;20039;-64
2022/07/07 10:39:49;;;;;;;2.05;0.20;;;;;;;20.19;61.76;102478.03;7382055;19;20106;-64
2022/07/07 10:42:15;;;;;;;2.17;0.10;;;;;;;20.24;61.46;102493.53;7383223;19;20010;-64
2022/07/07 10:44:47;;;;;;;1.38;0.20;;;;;;;20.29;61.20;102488.50;7383416;19;20022;-64
2022/07/07 10:47:17;;;;;;;3.03;0.20;;;;;;;20.30;61.31;102499.03;7381938;19;20547;-64
2022/07/07 10:49:52;;;;;;;0.70;0.10;;;;;;;20.31;60.77;102495.38;7384128;19;20018;-64
2022/07/07 10:52:40;;;;;;;2.22;0.20;;;;;;;20.28;61.20;102509.06;7384414;19;20014;-65
2022/07/07 10:55:51;;;;;;;0.98;0.20;;;;;;;20.25;61.91;102506.75;7384208;19;20042;-64
2022/07/07 10:58:54;;;;;;;1.42;0.10;;;;;;;20.28;61.38;102511.72;7382807;19;20018;-65
2022/07/07 11:01:21;;;;;;;;;;;;;;;20.28;61.10;102514.41;7382016;19;20485;-65
2022/07/07 11:03:48;;;;;;;3.05;0.20;;;;;;;20.29;61.06;102512.56;7385413;19;20005;-66
2022/07/07 11:06:16;;;;;;;3.20;0.20;;;;;;;20.31;61.63;102521.28;7381072;19;20010;-65
2022/07/07 11:08:55;;;;;;;0.82;0.15;;;;;;;20.33;60.84;102520.09;7383706;19;20006;-65
2022/07/07 11:11:22;;;;;;;2.53;0.30;;;;;;;20.35;61.25;102525.28;7383583;19;20025;-66
2022/07/07 11:14:05;;;;;;;2.05;0.10;;;;;;;20.37;61.28;102528.59;7384420;19;20014;-66
2022/07/07 11:16:32;;;;;;;1.90;0.20;;;;;;;20.33;60.68;102527.28;7383213;19;20378;-64
2022/07/07 11:19:03;;;;;;;1.05;0.20;;;;;;;20.34;60.35;102534.31;7385006;19;20010;-66
2022/07/07 11:21:46;;;;;;;0.93;0.20;;;;;;;20.31;60.17;102534.66;7380513;19;20570;-68
2022/07/07 11:24:13;;;;;;;0.98;0.20;;;;;;;20.32;59.93;102538.97;7384797;19;20014;-66
2022/07/07 11:26:42;;;;;;;1.02;0.20;;;;;;;20.30;60.48;102540.97;7383455;19;20097;-66
2022/07/07 11:29:10;;;;;;;1.00;0.20;;;;;;;20.27;60.92;102541.31;7385923;19;20102;-65
2022/07/07 11:31:37;;;;;;;1.30;0.20;;;;;;;20.25;61.35;102541.50;7381926;19;20359;-62
2022/07/07 11:34:05;;;;;;;1.25;0.17;;;;;;;20.27;60.91;102541.31;7384509;19;20034;-63